sensor_id;sensor_type;location;lat;lon;timestamp;P1;durP1;ratioP1;P2;durP2;ratioP2
54139;SDS011;40046;53.254;5.900;2024-03-08T00:02:23;27.13;;;20.33;;
54139;SDS011;40046;53.254;5.900;2024-03-08T00:04:49;30.63;;;19.00;;
54139;SDS011;40046;53.254;5.900;2024-03-08T00:07:15;29.73;;;18.58;;
54139;SDS011;40046;53.254;5.900;2024-03-08T00:09:41;29.48;;;18.70;;
54139;SDS011;40046;53.254;5.900;2024-03-08T00:12:08;29.45;;;19.98;;
54139;SDS011;40046;53.254;5.900;2024-03-08T00:14:34;29.23;;;19.27;;
54139;SDS011;40046;53.254;5.900;2024-03-08T00:17:02;30.15;;;19.63;;
54139;SDS011;40046;53.254;5.900;2024-03-08T00:19:28;32.78;;;19.90;;
54139;SDS011;40046;53.254;5.900;2024-03-08T00:21:54;35.70;;;21.08;;
54139;SDS011;40046;53.254;5.900;2024-03-08T00:24:20;28.83;;;20.33;;
54139;SDS011;40046;53.254;5.900;2024-03-08T00:26:50;32.25;;;20.38;;
54139;SDS011;40046;53.254;5.900;2024-03-08T00:29:16;30.15;;;20.80;;
54139;SDS011;40046;53.254;5.900;2024-03-08T00:31:42;33.35;;;21.45;;
54139;SDS011;40046;53.254;5.900;2024-03-08T00:34:08;33.97;;;21.08;;
54139;SDS011;40046;53.254;5.900;2024-03-08T00:36:37;34.30;;;21.55;;
54139;SDS011;40046;53.254;5.900;2024-03-08T00:39:03;31.90;;;21.52;;
54139;SDS011;40046;53.254;5.900;2024-03-08T00:41:32;36.13;;;21.88;;
54139;SDS011;40046;53.254;5.900;2024-03-08T00:43:58;32.80;;;23.05;;
54139;SDS011;40046;53.254;5.900;2024-03-08T00:46:25;39.28;;;23.05;;
54139;SDS011;40046;53.254;5.900;2024-03-08T00:48:53;32.58;;;20.33;;
54139;SDS011;40046;53.254;5.900;2024-03-08T00:51:21;36.85;;;22.52;;
54139;SDS011;40046;53.254;5.900;2024-03-08T00:53:47;42.13;;;23.27;;
54139;SDS011;40046;53.254;5.900;2024-03-08T00:56:13;36.15;;;22.67;;
54139;SDS011;40046;53.254;5.900;2024-03-08T00:58:40;37.22;;;24.10;;
54139;SDS011;40046;53.254;5.900;2024-03-08T01:01:06;33.95;;;23.23;;
54139;SDS011;40046;53.254;5.900;2024-03-08T01:03:32;39.85;;;23.30;;
54139;SDS011;40046;53.254;5.900;2024-03-08T01:05:59;38.13;;;23.38;;
54139;SDS011;40046;53.254;5.900;2024-03-08T01:08:29;35.22;;;23.90;;
54139;SDS011;40046;53.254;5.900;2024-03-08T01:10:55;40.72;;;24.58;;
54139;SDS011;40046;53.254;5.900;2024-03-08T01:13:22;34.38;;;24.45;;
54139;SDS011;40046;53.254;5.900;2024-03-08T01:15:48;37.40;;;25.75;;
54139;SDS011;40046;53.254;5.900;2024-03-08T01:18:14;39.60;;;24.20;;
54139;SDS011;40046;53.254;5.900;2024-03-08T01:20:40;38.90;;;26.75;;
54139;SDS011;40046;53.254;5.900;2024-03-08T01:23:06;41.85;;;25.95;;
54139;SDS011;40046;53.254;5.900;2024-03-08T01:25:35;35.00;;;23.58;;
54139;SDS011;40046;53.254;5.900;2024-03-08T01:28:02;41.70;;;25.85;;
54139;SDS011;40046;53.254;5.900;2024-03-08T01:30:28;38.53;;;25.50;;
54139;SDS011;40046;53.254;5.900;2024-03-08T01:32:54;41.83;;;26.63;;
54139;SDS011;40046;53.254;5.900;2024-03-08T01:35:20;42.08;;;26.65;;
54139;SDS011;40046;53.254;5.900;2024-03-08T01:37:47;47.33;;;27.15;;
54139;SDS011;40046;53.254;5.900;2024-03-08T01:40:14;50.25;;;29.65;;
54139;SDS011;40046;53.254;5.900;2024-03-08T01:42:42;44.90;;;29.52;;
54139;SDS011;40046;53.254;5.900;2024-03-08T01:45:08;46.90;;;29.13;;
54139;SDS011;40046;53.254;5.900;2024-03-08T01:47:34;46.45;;;30.48;;
54139;SDS011;40046;53.254;5.900;2024-03-08T01:50:01;48.17;;;29.55;;
54139;SDS011;40046;53.254;5.900;2024-03-08T01:52:31;47.92;;;29.40;;
54139;SDS011;40046;53.254;5.900;2024-03-08T01:55:01;51.80;;;32.92;;
54139;SDS011;40046;53.254;5.900;2024-03-08T01:57:29;50.78;;;30.42;;
54139;SDS011;40046;53.254;5.900;2024-03-08T01:59:59;50.28;;;30.33;;
54139;SDS011;40046;53.254;5.900;2024-03-08T02:02:33;52.83;;;33.25;;
54139;SDS011;40046;53.254;5.900;2024-03-08T02:05:03;48.50;;;30.27;;
54139;SDS011;40046;53.254;5.900;2024-03-08T02:07:29;51.70;;;31.40;;
54139;SDS011;40046;53.254;5.900;2024-03-08T02:09:55;46.63;;;30.27;;
54139;SDS011;40046;53.254;5.900;2024-03-08T02:12:21;49.03;;;29.60;;
54139;SDS011;40046;53.254;5.900;2024-03-08T02:14:47;47.05;;;30.30;;
54139;SDS011;40046;53.254;5.900;2024-03-08T02:17:14;60.13;;;33.05;;
54139;SDS011;40046;53.254;5.900;2024-03-08T02:19:40;52.90;;;31.73;;
54139;SDS011;40046;53.254;5.900;2024-03-08T02:22:06;48.85;;;31.17;;
54139;SDS011;40046;53.254;5.900;2024-03-08T02:24:32;52.95;;;31.95;;
54139;SDS011;40046;53.254;5.900;2024-03-08T02:26:59;47.00;;;31.65;;
54139;SDS011;40046;53.254;5.900;2024-03-08T02:29:25;51.55;;;31.67;;
54139;SDS011;40046;53.254;5.900;2024-03-08T02:31:51;58.05;;;31.27;;
54139;SDS011;40046;53.254;5.900;2024-03-08T02:34:17;51.47;;;31.52;;
54139;SDS011;40046;53.254;5.900;2024-03-08T02:36:43;51.28;;;31.23;;
54139;SDS011;40046;53.254;5.900;2024-03-08T02:39:10;55.15;;;31.45;;
54139;SDS011;40046;53.254;5.900;2024-03-08T02:41:36;52.20;;;32.80;;
54139;SDS011;40046;53.254;5.900;2024-03-08T02:44:02;58.08;;;33.17;;
54139;SDS011;40046;53.254;5.900;2024-03-08T02:46:29;56.15;;;32.40;;
54139;SDS011;40046;53.254;5.900;2024-03-08T02:48:55;52.95;;;30.95;;
54139;SDS011;40046;53.254;5.900;2024-03-08T02:51:21;50.90;;;31.38;;
54139;SDS011;40046;53.254;5.900;2024-03-08T02:53:47;55.13;;;32.90;;
54139;SDS011;40046;53.254;5.900;2024-03-08T02:56:17;50.55;;;30.65;;
54139;SDS011;40046;53.254;5.900;2024-03-08T02:58:43;53.10;;;33.25;;
54139;SDS011;40046;53.254;5.900;2024-03-08T03:01:14;55.17;;;32.05;;
54139;SDS011;40046;53.254;5.900;2024-03-08T03:03:41;55.38;;;31.38;;
54139;SDS011;40046;53.254;5.900;2024-03-08T03:06:07;50.97;;;34.45;;
54139;SDS011;40046;53.254;5.900;2024-03-08T03:08:34;47.15;;;31.45;;
54139;SDS011;40046;53.254;5.900;2024-03-08T03:11:00;52.22;;;31.85;;
54139;SDS011;40046;53.254;5.900;2024-03-08T03:13:26;48.15;;;29.38;;
54139;SDS011;40046;53.254;5.900;2024-03-08T03:15:54;54.22;;;31.25;;
54139;SDS011;40046;53.254;5.900;2024-03-08T03:18:23;50.47;;;31.85;;
54139;SDS011;40046;53.254;5.900;2024-03-08T03:20:51;50.00;;;29.17;;
54139;SDS011;40046;53.254;5.900;2024-03-08T03:23:17;52.35;;;32.13;;
54139;SDS011;40046;53.254;5.900;2024-03-08T03:25:45;50.38;;;31.08;;
54139;SDS011;40046;53.254;5.900;2024-03-08T03:28:12;50.22;;;29.75;;
54139;SDS011;40046;53.254;5.900;2024-03-08T03:30:44;52.55;;;32.40;;
54139;SDS011;40046;53.254;5.900;2024-03-08T03:33:11;48.55;;;32.65;;
54139;SDS011;40046;53.254;5.900;2024-03-08T03:35:40;49.47;;;28.85;;
54139;SDS011;40046;53.254;5.900;2024-03-08T03:38:06;43.15;;;29.02;;
54139;SDS011;40046;53.254;5.900;2024-03-08T03:40:33;45.70;;;27.77;;
54139;SDS011;40046;53.254;5.900;2024-03-08T03:42:59;42.33;;;28.27;;
54139;SDS011;40046;53.254;5.900;2024-03-08T03:45:25;46.92;;;30.70;;
54139;SDS011;40046;53.254;5.900;2024-03-08T03:47:51;41.00;;;28.52;;
54139;SDS011;40046;53.254;5.900;2024-03-08T03:50:18;45.47;;;30.13;;
54139;SDS011;40046;53.254;5.900;2024-03-08T03:52:47;46.15;;;28.42;;
54139;SDS011;40046;53.254;5.900;2024-03-08T03:55:14;45.83;;;28.83;;
54139;SDS011;40046;53.254;5.900;2024-03-08T03:57:40;46.05;;;28.85;;
54139;SDS011;40046;53.254;5.900;2024-03-08T04:00:07;47.17;;;29.48;;
54139;SDS011;40046;53.254;5.900;2024-03-08T04:02:42;42.40;;;26.55;;
54139;SDS011;40046;53.254;5.900;2024-03-08T04:05:09;46.53;;;28.73;;
54139;SDS011;40046;53.254;5.900;2024-03-08T04:07:35;44.45;;;28.90;;
54139;SDS011;40046;53.254;5.900;2024-03-08T04:10:02;47.03;;;28.73;;
54139;SDS011;40046;53.254;5.900;2024-03-08T04:12:28;43.85;;;28.05;;
54139;SDS011;40046;53.254;5.900;2024-03-08T04:14:55;45.92;;;30.33;;
54139;SDS011;40046;53.254;5.900;2024-03-08T04:17:21;42.03;;;28.05;;
54139;SDS011;40046;53.254;5.900;2024-03-08T04:19:49;44.22;;;25.55;;
54139;SDS011;40046;53.254;5.900;2024-03-08T04:22:15;47.33;;;27.08;;
54139;SDS011;40046;53.254;5.900;2024-03-08T04:24:43;43.35;;;28.52;;
54139;SDS011;40046;53.254;5.900;2024-03-08T04:27:09;46.17;;;26.10;;
54139;SDS011;40046;53.254;5.900;2024-03-08T04:29:35;39.67;;;26.35;;
54139;SDS011;40046;53.254;5.900;2024-03-08T04:32:02;41.13;;;27.33;;
54139;SDS011;40046;53.254;5.900;2024-03-08T04:34:29;38.53;;;26.23;;
54139;SDS011;40046;53.254;5.900;2024-03-08T04:36:59;51.63;;;27.58;;
54139;SDS011;40046;53.254;5.900;2024-03-08T04:39:25;45.28;;;28.40;;
54139;SDS011;40046;53.254;5.900;2024-03-08T04:41:53;38.28;;;26.80;;
54139;SDS011;40046;53.254;5.900;2024-03-08T04:44:20;38.95;;;25.45;;
54139;SDS011;40046;53.254;5.900;2024-03-08T04:46:46;41.05;;;25.30;;
54139;SDS011;40046;53.254;5.900;2024-03-08T04:49:12;40.20;;;24.88;;
54139;SDS011;40046;53.254;5.900;2024-03-08T04:51:38;36.97;;;24.38;;
54139;SDS011;40046;53.254;5.900;2024-03-08T04:54:05;42.00;;;25.13;;
54139;SDS011;40046;53.254;5.900;2024-03-08T04:56:31;39.15;;;24.95;;
54139;SDS011;40046;53.254;5.900;2024-03-08T04:58:58;39.78;;;24.67;;
54139;SDS011;40046;53.254;5.900;2024-03-08T05:01:25;41.25;;;25.15;;
54139;SDS011;40046;53.254;5.900;2024-03-08T05:03:51;41.40;;;26.75;;
54139;SDS011;40046;53.254;5.900;2024-03-08T05:06:20;43.05;;;27.88;;
54139;SDS011;40046;53.254;5.900;2024-03-08T05:08:46;40.75;;;25.92;;
54139;SDS011;40046;53.254;5.900;2024-03-08T05:11:12;42.67;;;26.77;;
54139;SDS011;40046;53.254;5.900;2024-03-08T05:13:40;38.38;;;25.73;;
54139;SDS011;40046;53.254;5.900;2024-03-08T05:16:06;43.83;;;25.65;;
54139;SDS011;40046;53.254;5.900;2024-03-08T05:18:33;40.17;;;25.38;;
54139;SDS011;40046;53.254;5.900;2024-03-08T05:20:59;41.80;;;26.10;;
54139;SDS011;40046;53.254;5.900;2024-03-08T05:23:29;44.28;;;25.60;;
54139;SDS011;40046;53.254;5.900;2024-03-08T05:25:55;43.10;;;27.98;;
54139;SDS011;40046;53.254;5.900;2024-03-08T05:28:22;42.30;;;24.83;;
54139;SDS011;40046;53.254;5.900;2024-03-08T05:30:48;42.50;;;25.40;;
54139;SDS011;40046;53.254;5.900;2024-03-08T05:33:14;41.28;;;24.20;;
54139;SDS011;40046;53.254;5.900;2024-03-08T05:35:40;39.47;;;24.23;;
54139;SDS011;40046;53.254;5.900;2024-03-08T05:38:07;38.60;;;25.27;;
54139;SDS011;40046;53.254;5.900;2024-03-08T05:40:33;40.13;;;26.08;;
54139;SDS011;40046;53.254;5.900;2024-03-08T05:42:59;43.15;;;28.13;;
54139;SDS011;40046;53.254;5.900;2024-03-08T05:45:25;41.38;;;26.70;;
54139;SDS011;40046;53.254;5.900;2024-03-08T05:47:52;40.17;;;24.02;;
54139;SDS011;40046;53.254;5.900;2024-03-08T05:50:18;41.72;;;26.52;;
54139;SDS011;40046;53.254;5.900;2024-03-08T05:52:44;44.28;;;26.45;;
54139;SDS011;40046;53.254;5.900;2024-03-08T05:55:12;40.30;;;26.50;;
54139;SDS011;40046;53.254;5.900;2024-03-08T05:57:40;40.17;;;25.63;;
54139;SDS011;40046;53.254;5.900;2024-03-08T06:00:07;45.92;;;25.75;;
54139;SDS011;40046;53.254;5.900;2024-03-08T06:02:39;40.13;;;26.40;;
54139;SDS011;40046;53.254;5.900;2024-03-08T06:05:09;41.60;;;26.80;;
54139;SDS011;40046;53.254;5.900;2024-03-08T06:07:36;38.47;;;23.10;;
54139;SDS011;40046;53.254;5.900;2024-03-08T06:10:06;41.33;;;25.20;;
54139;SDS011;40046;53.254;5.900;2024-03-08T06:12:35;38.55;;;23.33;;
54139;SDS011;40046;53.254;5.900;2024-03-08T06:15:05;41.42;;;25.00;;
54139;SDS011;40046;53.254;5.900;2024-03-08T06:17:32;39.72;;;24.88;;
54139;SDS011;40046;53.254;5.900;2024-03-08T06:19:59;42.13;;;25.92;;
54139;SDS011;40046;53.254;5.900;2024-03-08T06:22:25;38.22;;;24.67;;
54139;SDS011;40046;53.254;5.900;2024-03-08T06:24:51;39.35;;;25.10;;
54139;SDS011;40046;53.254;5.900;2024-03-08T06:27:19;42.25;;;25.40;;
54139;SDS011;40046;53.254;5.900;2024-03-08T06:29:45;39.75;;;23.80;;
54139;SDS011;40046;53.254;5.900;2024-03-08T06:32:14;41.08;;;25.25;;
54139;SDS011;40046;53.254;5.900;2024-03-08T06:34:41;41.60;;;25.98;;
54139;SDS011;40046;53.254;5.900;2024-03-08T06:37:07;37.88;;;24.02;;
54139;SDS011;40046;53.254;5.900;2024-03-08T06:39:33;38.92;;;24.42;;
54139;SDS011;40046;53.254;5.900;2024-03-08T06:42:01;40.58;;;24.10;;
54139;SDS011;40046;53.254;5.900;2024-03-08T06:44:27;41.60;;;27.15;;
54139;SDS011;40046;53.254;5.900;2024-03-08T06:46:53;38.53;;;25.85;;
54139;SDS011;40046;53.254;5.900;2024-03-08T06:49:19;37.97;;;22.92;;
54139;SDS011;40046;53.254;5.900;2024-03-08T06:51:45;43.47;;;24.77;;
54139;SDS011;40046;53.254;5.900;2024-03-08T06:54:11;39.72;;;23.17;;
54139;SDS011;40046;53.254;5.900;2024-03-08T06:56:38;38.53;;;24.10;;
54139;SDS011;40046;53.254;5.900;2024-03-08T06:59:04;39.75;;;25.60;;
54139;SDS011;40046;53.254;5.900;2024-03-08T07:01:30;37.95;;;23.95;;
54139;SDS011;40046;53.254;5.900;2024-03-08T07:03:57;42.60;;;24.85;;
54139;SDS011;40046;53.254;5.900;2024-03-08T07:06:23;38.53;;;23.02;;
54139;SDS011;40046;53.254;5.900;2024-03-08T07:08:50;41.17;;;25.23;;
54139;SDS011;40046;53.254;5.900;2024-03-08T07:11:16;34.33;;;22.08;;
54139;SDS011;40046;53.254;5.900;2024-03-08T07:13:44;35.90;;;24.73;;
54139;SDS011;40046;53.254;5.900;2024-03-08T07:16:11;40.47;;;24.77;;
54139;SDS011;40046;53.254;5.900;2024-03-08T07:18:37;38.40;;;23.83;;
54139;SDS011;40046;53.254;5.900;2024-03-08T07:21:09;36.45;;;24.13;;
54139;SDS011;40046;53.254;5.900;2024-03-08T07:23:35;39.47;;;22.95;;
54139;SDS011;40046;53.254;5.900;2024-03-08T07:26:20;32.22;;;21.67;;
54139;SDS011;40046;53.254;5.900;2024-03-08T07:28:46;34.67;;;22.55;;
54139;SDS011;40046;53.254;5.900;2024-03-08T07:31:13;38.83;;;24.30;;
54139;SDS011;40046;53.254;5.900;2024-03-08T07:33:42;33.90;;;23.58;;
54139;SDS011;40046;53.254;5.900;2024-03-08T07:36:08;35.08;;;23.20;;
54139;SDS011;40046;53.254;5.900;2024-03-08T07:38:34;35.38;;;22.58;;
54139;SDS011;40046;53.254;5.900;2024-03-08T07:41:00;35.22;;;23.08;;
54139;SDS011;40046;53.254;5.900;2024-03-08T07:43:26;41.63;;;24.02;;
54139;SDS011;40046;53.254;5.900;2024-03-08T07:45:52;39.55;;;23.50;;
54139;SDS011;40046;53.254;5.900;2024-03-08T07:48:20;35.35;;;22.77;;
54139;SDS011;40046;53.254;5.900;2024-03-08T07:50:46;35.90;;;23.25;;
54139;SDS011;40046;53.254;5.900;2024-03-08T07:53:15;33.85;;;22.63;;
54139;SDS011;40046;53.254;5.900;2024-03-08T07:55:41;34.45;;;24.80;;
54139;SDS011;40046;53.254;5.900;2024-03-08T07:58:08;36.15;;;22.58;;
54139;SDS011;40046;53.254;5.900;2024-03-08T08:00:36;40.47;;;22.52;;
54139;SDS011;40046;53.254;5.900;2024-03-08T08:03:02;38.65;;;23.10;;
54139;SDS011;40046;53.254;5.900;2024-03-08T08:05:29;37.28;;;25.23;;
54139;SDS011;40046;53.254;5.900;2024-03-08T08:08:01;35.20;;;22.77;;
54139;SDS011;40046;53.254;5.900;2024-03-08T08:10:31;37.72;;;23.88;;
54139;SDS011;40046;53.254;5.900;2024-03-08T08:12:58;37.63;;;24.08;;
54139;SDS011;40046;53.254;5.900;2024-03-08T08:15:24;33.13;;;22.83;;
54139;SDS011;40046;53.254;5.900;2024-03-08T08:17:50;36.35;;;23.05;;
54139;SDS011;40046;53.254;5.900;2024-03-08T08:20:19;34.95;;;23.55;;
54139;SDS011;40046;53.254;5.900;2024-03-08T08:22:47;33.15;;;23.55;;
54139;SDS011;40046;53.254;5.900;2024-03-08T08:25:13;31.23;;;22.42;;
54139;SDS011;40046;53.254;5.900;2024-03-08T08:27:40;34.88;;;22.08;;
54139;SDS011;40046;53.254;5.900;2024-03-08T08:30:10;31.73;;;22.65;;
54139;SDS011;40046;53.254;5.900;2024-03-08T08:32:36;32.22;;;22.08;;
54139;SDS011;40046;53.254;5.900;2024-03-08T08:35:04;36.00;;;25.25;;
54139;SDS011;40046;53.254;5.900;2024-03-08T08:37:31;32.25;;;22.58;;
54139;SDS011;40046;53.254;5.900;2024-03-08T08:39:57;34.13;;;21.88;;
54139;SDS011;40046;53.254;5.900;2024-03-08T08:42:27;33.65;;;24.60;;
54139;SDS011;40046;53.254;5.900;2024-03-08T08:44:53;34.38;;;22.77;;
54139;SDS011;40046;53.254;5.900;2024-03-08T08:47:20;36.55;;;25.80;;
54139;SDS011;40046;53.254;5.900;2024-03-08T08:49:46;39.92;;;25.33;;
54139;SDS011;40046;53.254;5.900;2024-03-08T08:52:12;36.33;;;23.52;;
54139;SDS011;40046;53.254;5.900;2024-03-08T08:54:38;33.13;;;22.65;;
54139;SDS011;40046;53.254;5.900;2024-03-08T08:57:04;34.63;;;23.17;;
54139;SDS011;40046;53.254;5.900;2024-03-08T08:59:33;33.30;;;23.33;;
54139;SDS011;40046;53.254;5.900;2024-03-08T09:02:01;34.50;;;24.40;;
54139;SDS011;40046;53.254;5.900;2024-03-08T09:04:29;33.08;;;23.35;;
54139;SDS011;40046;53.254;5.900;2024-03-08T09:06:56;33.08;;;23.63;;
54139;SDS011;40046;53.254;5.900;2024-03-08T09:09:22;33.90;;;23.77;;
54139;SDS011;40046;53.254;5.900;2024-03-08T09:11:48;34.67;;;23.90;;
54139;SDS011;40046;53.254;5.900;2024-03-08T09:14:15;35.88;;;24.35;;
54139;SDS011;40046;53.254;5.900;2024-03-08T09:16:41;38.30;;;26.50;;
54139;SDS011;40046;53.254;5.900;2024-03-08T09:19:07;32.42;;;24.67;;
54139;SDS011;40046;53.254;5.900;2024-03-08T09:21:36;32.63;;;24.33;;
54139;SDS011;40046;53.254;5.900;2024-03-08T09:24:02;32.08;;;24.05;;
54139;SDS011;40046;53.254;5.900;2024-03-08T09:26:28;34.70;;;24.63;;
54139;SDS011;40046;53.254;5.900;2024-03-08T09:28:55;39.13;;;24.00;;
54139;SDS011;40046;53.254;5.900;2024-03-08T09:31:21;32.92;;;24.20;;
54139;SDS011;40046;53.254;5.900;2024-03-08T09:33:47;34.75;;;24.98;;
54139;SDS011;40046;53.254;5.900;2024-03-08T09:36:14;37.20;;;25.98;;
54139;SDS011;40046;53.254;5.900;2024-03-08T09:38:40;33.85;;;24.20;;
54139;SDS011;40046;53.254;5.900;2024-03-08T09:41:06;37.97;;;25.30;;
54139;SDS011;40046;53.254;5.900;2024-03-08T09:43:35;35.72;;;24.73;;
54139;SDS011;40046;53.254;5.900;2024-03-08T09:46:02;35.88;;;24.85;;
54139;SDS011;40046;53.254;5.900;2024-03-08T09:48:31;35.10;;;26.23;;
54139;SDS011;40046;53.254;5.900;2024-03-08T09:51:00;35.33;;;26.20;;
54139;SDS011;40046;53.254;5.900;2024-03-08T09:53:26;31.40;;;24.52;;
54139;SDS011;40046;53.254;5.900;2024-03-08T09:55:52;35.17;;;25.85;;
54139;SDS011;40046;53.254;5.900;2024-03-08T09:58:18;36.97;;;24.10;;
54139;SDS011;40046;53.254;5.900;2024-03-08T10:00:44;36.70;;;24.65;;
54139;SDS011;40046;53.254;5.900;2024-03-08T10:03:10;33.30;;;23.08;;
54139;SDS011;40046;53.254;5.900;2024-03-08T10:05:43;33.63;;;24.13;;
54139;SDS011;40046;53.254;5.900;2024-03-08T10:08:09;33.53;;;24.15;;
54139;SDS011;40046;53.254;5.900;2024-03-08T10:10:36;36.10;;;23.65;;
54139;SDS011;40046;53.254;5.900;2024-03-08T10:13:06;28.83;;;22.48;;
54139;SDS011;40046;53.254;5.900;2024-03-08T10:15:32;34.15;;;22.90;;
54139;SDS011;40046;53.254;5.900;2024-03-08T10:17:59;32.08;;;23.08;;
54139;SDS011;40046;53.254;5.900;2024-03-08T10:20:27;28.63;;;21.88;;
54139;SDS011;40046;53.254;5.900;2024-03-08T10:22:55;30.25;;;23.65;;
54139;SDS011;40046;53.254;5.900;2024-03-08T10:25:22;31.05;;;23.90;;
54139;SDS011;40046;53.254;5.900;2024-03-08T10:27:50;31.73;;;22.20;;
54139;SDS011;40046;53.254;5.900;2024-03-08T10:30:17;28.75;;;21.77;;
54139;SDS011;40046;53.254;5.900;2024-03-08T10:32:45;32.50;;;22.67;;
54139;SDS011;40046;53.254;5.900;2024-03-08T10:35:11;29.52;;;22.30;;
54139;SDS011;40046;53.254;5.900;2024-03-08T10:37:44;30.08;;;22.40;;
54139;SDS011;40046;53.254;5.900;2024-03-08T10:40:13;34.80;;;24.13;;
54139;SDS011;40046;53.254;5.900;2024-03-08T10:42:57;35.28;;;24.83;;
54139;SDS011;40046;53.254;5.900;2024-03-08T10:45:37;35.17;;;22.90;;
54139;SDS011;40046;53.254;5.900;2024-03-08T10:50:53;29.33;;;22.52;;
54139;SDS011;40046;53.254;5.900;2024-03-08T10:53:20;30.92;;;24.17;;
54139;SDS011;40046;53.254;5.900;2024-03-08T10:55:49;32.70;;;24.75;;
54139;SDS011;40046;53.254;5.900;2024-03-08T10:58:19;35.08;;;24.25;;
54139;SDS011;40046;53.254;5.900;2024-03-08T11:00:46;33.78;;;23.63;;
54139;SDS011;40046;53.254;5.900;2024-03-08T11:06:00;35.58;;;25.02;;
54139;SDS011;40046;53.254;5.900;2024-03-08T11:08:26;39.88;;;28.52;;
54139;SDS011;40046;53.254;5.900;2024-03-08T11:10:56;35.58;;;25.75;;
54139;SDS011;40046;53.254;5.900;2024-03-08T11:13:32;34.60;;;27.00;;
54139;SDS011;40046;53.254;5.900;2024-03-08T11:15:59;32.45;;;25.40;;
54139;SDS011;40046;53.254;5.900;2024-03-08T11:18:26;33.33;;;25.73;;
54139;SDS011;40046;53.254;5.900;2024-03-08T11:20:55;34.75;;;24.95;;
54139;SDS011;40046;53.254;5.900;2024-03-08T11:23:23;33.10;;;24.65;;
54139;SDS011;40046;53.254;5.900;2024-03-08T11:25:51;33.40;;;25.27;;
54139;SDS011;40046;53.254;5.900;2024-03-08T11:28:18;36.28;;;24.75;;
54139;SDS011;40046;53.254;5.900;2024-03-08T11:30:45;32.22;;;25.08;;
54139;SDS011;40046;53.254;5.900;2024-03-08T11:33:16;31.48;;;24.85;;
54139;SDS011;40046;53.254;5.900;2024-03-08T11:35:43;32.03;;;23.38;;
54139;SDS011;40046;53.254;5.900;2024-03-08T11:38:11;36.33;;;26.08;;
54139;SDS011;40046;53.254;5.900;2024-03-08T11:40:38;31.30;;;23.38;;
54139;SDS011;40046;53.254;5.900;2024-03-08T11:43:05;36.28;;;26.05;;
54139;SDS011;40046;53.254;5.900;2024-03-08T11:45:35;32.85;;;26.20;;
54139;SDS011;40046;53.254;5.900;2024-03-08T11:48:02;35.90;;;24.88;;
54139;SDS011;40046;53.254;5.900;2024-03-08T11:50:29;33.92;;;25.65;;
54139;SDS011;40046;53.254;5.900;2024-03-08T11:53:02;34.33;;;25.20;;
54139;SDS011;40046;53.254;5.900;2024-03-08T11:55:29;33.30;;;26.48;;
54139;SDS011;40046;53.254;5.900;2024-03-08T11:58:05;31.33;;;24.80;;
54139;SDS011;40046;53.254;5.900;2024-03-08T12:00:36;29.98;;;23.73;;
54139;SDS011;40046;53.254;5.900;2024-03-08T12:03:06;34.63;;;24.98;;
54139;SDS011;40046;53.254;5.900;2024-03-08T12:05:34;30.38;;;22.42;;
54139;SDS011;40046;53.254;5.900;2024-03-08T12:08:04;32.65;;;24.40;;
54139;SDS011;40046;53.254;5.900;2024-03-08T12:10:32;34.17;;;23.75;;
54139;SDS011;40046;53.254;5.900;2024-03-08T12:13:00;32.47;;;23.73;;
54139;SDS011;40046;53.254;5.900;2024-03-08T12:15:28;29.48;;;23.40;;
54139;SDS011;40046;53.254;5.900;2024-03-08T12:17:54;34.53;;;25.75;;
54139;SDS011;40046;53.254;5.900;2024-03-08T12:20:22;27.77;;;22.38;;
54139;SDS011;40046;53.254;5.900;2024-03-08T12:22:48;34.00;;;23.63;;
54139;SDS011;40046;53.254;5.900;2024-03-08T12:25:14;31.88;;;23.40;;
54139;SDS011;40046;53.254;5.900;2024-03-08T12:27:41;28.10;;;23.27;;
54139;SDS011;40046;53.254;5.900;2024-03-08T12:30:26;30.05;;;21.42;;
54139;SDS011;40046;53.254;5.900;2024-03-08T12:32:57;35.17;;;26.33;;
54139;SDS011;40046;53.254;5.900;2024-03-08T12:35:24;33.20;;;24.73;;
54139;SDS011;40046;53.254;5.900;2024-03-08T12:37:52;32.13;;;23.58;;
54139;SDS011;40046;53.254;5.900;2024-03-08T12:40:19;33.65;;;25.75;;
54139;SDS011;40046;53.254;5.900;2024-03-08T12:42:46;31.42;;;24.38;;
54139;SDS011;40046;53.254;5.900;2024-03-08T12:45:13;35.72;;;25.45;;
54139;SDS011;40046;53.254;5.900;2024-03-08T12:47:39;33.25;;;24.88;;
54139;SDS011;40046;53.254;5.900;2024-03-08T12:50:07;34.15;;;24.50;;
54139;SDS011;40046;53.254;5.900;2024-03-08T12:52:34;32.70;;;25.90;;
54139;SDS011;40046;53.254;5.900;2024-03-08T12:55:02;45.42;;;24.73;;
54139;SDS011;40046;53.254;5.900;2024-03-08T12:57:28;34.05;;;25.48;;
54139;SDS011;40046;53.254;5.900;2024-03-08T12:59:54;30.40;;;24.23;;
54139;SDS011;40046;53.254;5.900;2024-03-08T13:02:20;32.38;;;23.77;;
54139;SDS011;40046;53.254;5.900;2024-03-08T13:04:46;30.92;;;24.48;;
54139;SDS011;40046;53.254;5.900;2024-03-08T13:07:22;32.78;;;24.70;;
54139;SDS011;40046;53.254;5.900;2024-03-08T13:09:54;34.33;;;26.05;;
54139;SDS011;40046;53.254;5.900;2024-03-08T13:12:20;32.75;;;25.27;;
54139;SDS011;40046;53.254;5.900;2024-03-08T13:14:47;32.92;;;25.95;;
54139;SDS011;40046;53.254;5.900;2024-03-08T13:17:14;33.03;;;23.98;;
54139;SDS011;40046;53.254;5.900;2024-03-08T13:19:40;33.05;;;24.30;;
54139;SDS011;40046;53.254;5.900;2024-03-08T13:22:08;31.55;;;24.30;;
54139;SDS011;40046;53.254;5.900;2024-03-08T13:24:41;29.17;;;24.38;;
54139;SDS011;40046;53.254;5.900;2024-03-08T13:27:07;31.48;;;24.98;;
54139;SDS011;40046;53.254;5.900;2024-03-08T13:29:45;29.67;;;23.83;;
54139;SDS011;40046;53.254;5.900;2024-03-08T13:32:12;33.33;;;24.30;;
54139;SDS011;40046;53.254;5.900;2024-03-08T13:34:42;30.75;;;22.92;;
54139;SDS011;40046;53.254;5.900;2024-03-08T13:37:08;31.80;;;24.45;;
54139;SDS011;40046;53.254;5.900;2024-03-08T13:39:35;28.98;;;22.55;;
54139;SDS011;40046;53.254;5.900;2024-03-08T13:42:17;29.88;;;22.27;;
54139;SDS011;40046;53.254;5.900;2024-03-08T13:44:45;32.53;;;24.23;;
54139;SDS011;40046;53.254;5.900;2024-03-08T13:47:15;28.15;;;23.30;;
54139;SDS011;40046;53.254;5.900;2024-03-08T13:49:42;31.77;;;23.70;;
54139;SDS011;40046;53.254;5.900;2024-03-08T13:52:09;32.53;;;23.30;;
54139;SDS011;40046;53.254;5.900;2024-03-08T13:54:35;32.50;;;23.15;;
54139;SDS011;40046;53.254;5.900;2024-03-08T13:57:03;28.63;;;22.92;;
54139;SDS011;40046;53.254;5.900;2024-03-08T13:59:30;34.67;;;25.50;;
54139;SDS011;40046;53.254;5.900;2024-03-08T14:02:01;27.50;;;21.63;;
54139;SDS011;40046;53.254;5.900;2024-03-08T14:04:28;31.17;;;22.75;;
54139;SDS011;40046;53.254;5.900;2024-03-08T14:06:54;27.02;;;22.65;;
54139;SDS011;40046;53.254;5.900;2024-03-08T14:09:29;29.85;;;24.38;;
54139;SDS011;40046;53.254;5.900;2024-03-08T14:11:56;28.95;;;22.08;;
54139;SDS011;40046;53.254;5.900;2024-03-08T14:14:23;29.38;;;22.20;;
54139;SDS011;40046;53.254;5.900;2024-03-08T14:16:50;30.92;;;23.92;;
54139;SDS011;40046;53.254;5.900;2024-03-08T14:19:20;30.55;;;22.35;;
54139;SDS011;40046;53.254;5.900;2024-03-08T14:21:46;33.95;;;24.52;;
54139;SDS011;40046;53.254;5.900;2024-03-08T14:24:14;29.15;;;23.08;;
54139;SDS011;40046;53.254;5.900;2024-03-08T14:26:40;26.80;;;21.63;;
54139;SDS011;40046;53.254;5.900;2024-03-08T14:29:07;27.35;;;20.85;;